Time;durP1;ratioP1;P1;durP2;ratioP2;P2;SDS_P1;SDS_P2;PMS_P1;PMS_P2;Temp;Humidity;BMP_temperature;BMP_pressure;BME280_temperature;BME280_humidity;BME280_pressure;Samples;Min_cycle;Max_cycle;Signal;HPM_P1;HPM_P2
2021/03/24 00:00:32;;;;;;;0.10;0.10;;;15.60;66.90;;;;;;4196490;28;20052;-44
2021/03/24 00:02:54;;;;;;;2.63;1.98;;;15.60;67.00;;;;;;4195511;28;20056;-43
2021/03/24 00:05:18;;;;;;;0.50;0.50;;;15.60;67.00;;;;;;4196568;28;20063;-43
2021/03/24 00:07:40;;;;;;;1.60;1.60;;;15.60;67.90;;;;;;4196280;28;20410;-43
2021/03/24 00:10:01;;;;;;;0.40;0.40;;;15.60;67.20;;;;;;4196501;28;20481;-43
2021/03/24 00:12:22;;;;;;;0.08;0.08;;;15.60;67.10;;;;;;4193515;28;20053;-45
2021/03/24 00:14:45;;;;;;;0.03;0.03;;;15.50;67.10;;;;;;4196553;28;20056;-43
2021/03/24 00:17:06;;;;;;;0.00;0.00;;;15.50;67.10;;;;;;4196333;28;20193;-43
2021/03/24 00:19:27;;;;;;;0.35;0.35;;;15.50;67.20;;;;;;4196083;28;20572;-43
2021/03/24 00:21:58;;;;;;;0.40;0.40;;;15.50;67.20;;;;;;4195888;28;20700;-44
2021/03/24 00:24:18;;;;;;;0.10;0.10;;;15.50;68.10;;;;;;4196411;28;20087;-43
2021/03/24 00:26:39;;;;;;;0.80;0.80;;;15.50;67.30;;;;;;4196107;28;20052;-44
2021/03/24 00:29:00;;;;;;;1.35;1.35;;;15.50;67.30;;;;;;4196222;28;20098;-44
2021/03/24 00:31:22;;;;;;;0.40;0.40;;;15.50;67.30;;;;;;4196165;28;20151;-48
2021/03/24 00:33:44;;;;;;;1.95;1.45;;;15.40;67.30;;;;;;4196117;28;20059;-49
2021/03/24 00:36:06;;;;;;;0.75;0.75;;;15.50;67.40;;;;;;4196254;28;20052;-48
2021/03/24 00:38:27;;;;;;;0.00;0.00;;;15.50;67.50;;;;;;4179529;28;20060;-47
2021/03/24 00:40:50;;;;;;;0.50;0.50;;;15.40;67.40;;;;;;4187466;28;20045;-43
2021/03/24 00:43:11;;;;;;;0.73;0.73;;;15.50;67.60;;;;;;4196169;28;20143;-45
2021/03/24 00:45:33;;;;;;;0.00;0.00;;;15.40;67.50;;;;;;4196058;28;20056;-43
2021/03/24 00:47:54;;;;;;;0.52;0.52;;;15.40;67.60;;;;;;4193955;28;20060;-43
2021/03/24 00:50:19;;;;;;;0.95;0.95;;;15.40;67.50;;;;;;4194938;28;20084;-43
2021/03/24 00:52:40;;;;;;;0.88;0.88;;;15.40;67.60;;;;;;4195658;28;20052;-45
2021/03/24 00:55:01;;;;;;;0.20;0.20;;;15.40;67.60;;;;;;4195997;28;20067;-43
2021/03/24 00:57:22;;;;;;;0.22;0.22;;;15.40;67.70;;;;;;4195688;28;20490;-43
2021/03/24 00:59:43;;;;;;;0.00;0.00;;;15.40;67.60;;;;;;4195763;28;20056;-44
2021/03/24 01:02:04;;;;;;;2.30;0.95;;;15.40;67.60;;;;;;4195499;28;20049;-42
2021/03/24 01:04:27;;;;;;;0.32;0.32;;;15.40;67.60;;;;;;4194798;28;20121;-43
2021/03/24 01:06:48;;;;;;;0.30;0.30;;;15.40;67.60;;;;;;4195578;28;20052;-43
2021/03/24 01:09:10;;;;;;;2.28;1.92;;;15.40;67.70;;;;;;4195404;28;20056;-43
2021/03/24 01:11:30;;;;;;;0.20;0.20;;;15.40;67.80;;;;;;4195833;28;20082;-42
2021/03/24 01:13:51;;;;;;;2.28;1.77;;;15.40;67.70;;;;;;4195560;28;20052;-42
2021/03/24 01:16:12;;;;;;;0.38;0.38;;;15.40;67.70;;;;;;4194411;28;20080;-44
2021/03/24 01:18:33;;;;;;;1.00;1.00;;;15.30;67.70;;;;;;4195516;28;20571;-43
2021/03/24 01:20:55;;;;;;;0.10;0.10;;;15.30;67.70;;;;;;4195645;28;20055;-42
2021/03/24 01:23:16;;;;;;;0.20;0.20;;;15.30;67.80;;;;;;4186042;28;20041;-43
2021/03/24 01:25:37;;;;;;;0.32;0.32;;;15.30;67.80;;;;;;4195554;28;20114;-43
2021/03/24 01:27:59;;;;;;;2.60;0.90;;;15.30;67.90;;;;;;4195403;28;20064;-43
2021/03/24 01:30:21;;;;;;;;;;;15.30;67.80;;;;;;4196098;28;20049;-43
2021/03/24 01:32:42;;;;;;;;;;;15.30;67.90;;;;;;4195813;28;19924;-43
2021/03/24 01:35:03;;;;;;;1.30;1.20;;;15.30;67.90;;;;;;4195597;28;20298;-43
2021/03/24 01:37:25;;;;;;;0.10;0.10;;;15.30;67.90;;;;;;4195259;28;20545;-43
2021/03/24 01:39:46;;;;;;;0.00;0.00;;;15.30;68.00;;;;;;4195435;28;20072;-43
2021/03/24 01:42:09;;;;;;;2.80;2.42;;;15.30;68.00;;;;;;4195540;28;20063;-43
2021/03/24 01:44:30;;;;;;;0.13;0.13;;;15.30;68.10;;;;;;4195482;28;20613;-43
2021/03/24 01:46:50;;;;;;;0.00;0.00;;;15.30;68.10;;;;;;4195264;28;20053;-43
2021/03/24 01:49:18;;;;;;;0.88;0.88;;;15.30;68.10;;;;;;4178870;28;20083;-42
2021/03/24 01:51:42;;;;;;;0.30;0.30;;;15.30;68.10;;;;;;4184956;28;20068;-43
2021/03/24 01:54:06;;;;;;;0.00;0.00;;;15.30;68.10;;;;;;4195391;28;20135;-43
2021/03/24 01:56:29;;;;;;;0.73;0.73;;;15.30;68.10;;;;;;4195465;28;20056;-43
2021/03/24 01:58:50;;;;;;;0.10;0.10;;;15.20;68.10;;;;;;4195893;28;20136;-45
2021/03/24 02:01:13;;;;;;;0.55;0.55;;;15.20;68.10;;;;;;4198346;28;20056;-46
2021/03/24 02:03:34;;;;;;;1.20;1.10;;;15.20;68.20;;;;;;4198618;28;20127;-47
2021/03/24 02:05:57;;;;;;;3.05;1.60;;;15.20;68.10;;;;;;4198245;28;20059;-47
2021/03/24 02:08:24;;;;;;;0.22;0.22;;;15.20;68.20;;;;;;4198124;28;20068;-45
2021/03/24 02:10:50;;;;;;;0.15;0.15;;;15.20;68.20;;;;;;4198189;28;20040;-47
2021/03/24 02:13:17;;;;;;;1.85;1.75;;;15.20;68.20;;;;;;4181781;28;20057;-45
2021/03/24 02:15:41;;;;;;;0.10;0.10;;;15.20;68.30;;;;;;4186722;28;20049;-48
2021/03/24 02:18:04;;;;;;;0.10;0.10;;;15.20;68.30;;;;;;4198330;28;20052;-48
2021/03/24 02:20:31;;;;;;;0.73;0.63;;;15.20;69.20;;;;;;4198055;28;20059;-44
2021/03/24 02:23:00;;;;;;;0.75;0.75;;;15.20;68.40;;;;;;4181680;28;20061;-47
2021/03/24 02:25:27;;;;;;;0.40;0.40;;;15.20;68.40;;;;;;4184515;28;20045;-45
2021/03/24 02:27:54;;;;;;;0.10;0.10;;;15.20;68.50;;;;;;4198177;28;20052;-45
2021/03/24 02:30:18;;;;;;;0.13;0.13;;;15.20;69.40;;;;;;4197970;28;20123;-45
2021/03/24 02:32:44;;;;;;;1.85;1.75;;;15.10;68.50;;;;;;4198128;28;20502;-46
2021/03/24 02:35:12;;;;;;;0.98;0.98;;;15.10;68.50;;;;;;4197798;28;20052;-43
2021/03/24 02:37:36;;;;;;;0.95;0.95;;;15.10;68.50;;;;;;4197774;28;20064;-45
2021/03/24 02:40:01;;;;;;;5.57;1.48;;;15.10;68.60;;;;;;4198089;28;20487;-42
2021/03/24 02:42:23;;;;;;;0.15;0.15;;;15.10;68.70;;;;;;4198092;28;20143;-43
2021/03/24 02:44:46;;;;;;;1.58;1.52;;;15.10;68.70;;;;;;4197815;28;20494;-44
2021/03/24 02:47:09;;;;;;;0.43;0.43;;;15.10;68.80;;;;;;4181363;28;20060;-44
2021/03/24 02:49:31;;;;;;;2.05;0.98;;;15.10;68.80;;;;;;4181306;28;20163;-54
2021/03/24 02:51:53;;;;;;;0.10;0.10;;;15.10;68.80;;;;;;4190829;28;20552;-45
2021/03/24 02:54:18;;;;;;;1.55;1.17;;;15.10;68.90;;;;;;4197674;28;20049;-45
2021/03/24 02:56:39;;;;;;;0.80;0.80;;;15.10;68.90;;;;;;4190784;28;20071;-44
2021/03/24 02:59:00;;;;;;;0.65;0.65;;;15.10;68.90;;;;;;4197822;28;20044;-43
2021/03/24 03:01:25;;;;;;;1.02;1.02;;;15.10;69.00;;;;;;4197487;28;20513;-42
2021/03/24 03:03:49;;;;;;;0.20;0.20;;;15.00;68.90;;;;;;4181173;28;20110;-43
2021/03/24 03:06:14;;;;;;;0.65;0.63;;;15.00;69.00;;;;;;4185761;28;20049;-45
2021/03/24 03:08:41;;;;;;;1.75;0.90;;;15.00;69.00;;;;;;4197527;28;20400;-43
2021/03/24 03:11:05;;;;;;;1.30;1.30;;;15.00;69.10;;;;;;4196694;28;20094;-43
2021/03/24 03:13:31;;;;;;;0.30;0.30;;;15.00;69.20;;;;;;4196839;28;20534;-43
2021/03/24 03:16:00;;;;;;;0.45;0.45;;;15.00;69.20;;;;;;4197272;28;20059;-44
2021/03/24 03:18:26;;;;;;;0.35;0.35;;;15.00;69.30;;;;;;4197414;28;20056;-43
2021/03/24 03:20:53;;;;;;;0.10;0.10;;;15.00;69.40;;;;;;4197136;28;20791;-43
2021/03/24 03:23:19;;;;;;;0.13;0.13;;;15.00;69.40;;;;;;4180832;28;20077;-43
2021/03/24 03:25:46;;;;;;;1.13;1.13;;;15.00;69.50;;;;;;4194365;28;20490;-44
2021/03/24 03:28:09;;;;;;;0.10;0.10;;;15.00;69.50;;;;;;4197195;28;20578;-45
2021/03/24 03:30:34;;;;;;;1.45;1.40;;;15.00;69.50;;;;;;4196955;28;20055;-44
2021/03/24 03:32:59;;;;;;;0.52;0.52;;;14.90;69.50;;;;;;4197233;28;20487;-43
2021/03/24 03:35:23;;;;;;;0.65;0.65;;;14.90;69.60;;;;;;4196965;28;20495;-43
2021/03/24 03:37:45;;;;;;;2.05;1.85;;;14.90;69.60;;;;;;4179350;28;20139;-43
2021/03/24 03:40:11;;;;;;;3.50;0.85;;;14.90;69.70;;;;;;4180464;28;20060;-44
2021/03/24 03:42:32;;;;;;;5.45;0.95;;;14.90;69.60;;;;;;4180620;28;20140;-44
2021/03/24 03:44:56;;;;;;;5.97;1.60;;;14.90;69.70;;;;;;4189565;28;20495;-44
2021/03/24 03:47:17;;;;;;;0.73;0.73;;;14.90;69.70;;;;;;4196696;28;20056;-43
2021/03/24 03:49:41;;;;;;;0.57;0.57;;;14.90;69.70;;;;;;4196852;28;20133;-43
2021/03/24 03:52:24;;;;;;;0.38;0.38;;;14.90;69.80;;;;;;4194732;28;20104;-43
2021/03/24 03:54:51;;;;;;;0.73;0.73;;;14.90;69.80;;;;;;4195766;28;20552;-43
2021/03/24 03:57:23;;;;;;;1.75;1.65;;;14.90;69.90;;;;;;4195644;28;20438;-43
2021/03/24 03:59:53;;;;;;;1.00;1.00;;;14.90;69.90;;;;;;4196048;28;20057;-43
2021/03/24 04:02:17;;;;;;;1.38;1.30;;;14.80;69.90;;;;;;4195464;28;20058;-43
2021/03/24 04:04:42;;;;;;;1.15;1.15;;;14.80;69.90;;;;;;4196217;28;20390;-44
2021/03/24 04:07:09;;;;;;;0.98;0.98;;;14.80;70.00;;;;;;4195610;28;20506;-44
2021/03/24 04:09:29;;;;;;;2.03;1.05;;;14.80;70.00;;;;;;4195906;28;20074;-43
2021/03/24 04:11:53;;;;;;;1.60;1.60;;;14.80;70.00;;;;;;4195668;28;20056;-43
2021/03/24 04:14:17;;;;;;;0.32;0.32;;;14.80;70.00;;;;;;4195801;28;20049;-47
2021/03/24 04:16:39;;;;;;;0.50;0.50;;;14.80;70.10;;;;;;4195419;28;20052;-46
2021/03/24 04:19:03;;;;;;;0.38;0.38;;;14.80;70.10;;;;;;4195856;28;20051;-43
2021/03/24 04:21:27;;;;;;;6.13;2.65;;;14.80;70.10;;;;;;4195329;28;20536;-43
2021/03/24 04:23:56;;;;;;;1.67;1.58;;;14.80;70.10;;;;;;4194211;28;20082;-43
2021/03/24 04:26:22;;;;;;;1.00;1.00;;;14.80;70.20;;;;;;4178938;28;20057;-44
2021/03/24 04:28:46;;;;;;;2.97;1.80;;;14.80;70.20;;;;;;4178972;28;20053;-43
2021/03/24 04:31:11;;;;;;;1.83;1.73;;;14.80;71.10;;;;;;4188200;28;20063;-43
2021/03/24 04:33:33;;;;;;;7.30;1.70;;;14.70;70.30;;;;;;4195342;28;20048;-45
2021/03/24 04:35:58;;;;;;;0.90;0.90;;;14.80;70.30;;;;;;4195302;28;20426;-44
2021/03/24 04:38:27;;;;;;;0.30;0.30;;;14.70;70.30;;;;;;4195436;28;20056;-43
2021/03/24 04:40:51;;;;;;;1.45;1.45;;;14.70;70.30;;;;;;4179122;28;20057;-44
2021/03/24 04:43:15;;;;;;;0.40;0.40;;;14.70;70.30;;;;;;4184778;28;20044;-45
2021/03/24 04:45:42;;;;;;;1.77;1.45;;;14.70;70.30;;;;;;4195359;28;20048;-43
2021/03/24 04:48:08;;;;;;;0.45;0.45;;;14.70;70.30;;;;;;4195329;28;20074;-43
2021/03/24 04:50:35;;;;;;;2.20;2.10;;;14.70;70.40;;;;;;4158176;28;665126;-43
2021/03/24 04:53:01;;;;;;;0.90;0.63;;;14.70;70.40;;;;;;4195916;28;20568;-43
2021/03/24 04:55:28;;;;;;;0.95;0.95;;;14.70;70.50;;;;;;4196032;28;20673;-44
2021/03/24 04:57:53;;;;;;;0.10;0.10;;;14.70;70.70;;;;;;4194819;28;20435;-44
2021/03/24 05:00:32;;;;;;;1.13;1.13;;;14.70;70.70;;;;;;4195659;28;20053;-43
2021/03/24 05:02:59;;;;;;;0.10;0.10;;;14.60;70.60;;;;;;4195874;28;20049;-43
2021/03/24 05:05:26;;;;;;;0.10;0.10;;;14.60;70.70;;;;;;4195701;28;20139;-43
2021/03/24 05:07:53;;;;;;;2.60;0.90;;;14.60;70.60;;;;;;4195714;28;20052;-51
2021/03/24 05:10:19;;;;;;;4.65;0.73;;;14.60;70.70;;;;;;4195498;28;20048;-48
2021/03/24 05:12:45;;;;;;;1.10;1.10;;;14.60;70.70;;;;;;4179218;28;20411;-49
2021/03/24 05:15:12;;;;;;;1.02;1.00;;;14.60;70.70;;;;;;4182592;28;20048;-43
2021/03/24 05:17:35;;;;;;;11.13;3.17;;;14.60;70.70;;;;;;4195563;28;20138;-43
2021/03/24 05:19:59;;;;;;;0.68;0.68;;;14.60;70.80;;;;;;4195647;28;20102;-47
2021/03/24 05:22:28;;;;;;;3.67;1.25;;;14.60;70.80;;;;;;4195651;28;20052;-45
2021/03/24 05:24:55;;;;;;;0.22;0.22;;;14.50;70.80;;;;;;4195474;28;20064;-43
2021/03/24 05:27:26;;;;;;;6.28;0.75;;;14.50;70.90;;;;;;4195136;28;20056;-44
2021/03/24 05:29:50;;;;;;;1.55;1.45;;;14.50;70.80;;;;;;4179151;28;20495;-43
2021/03/24 05:32:18;;;;;;;0.52;0.52;;;14.50;70.90;;;;;;4193689;28;20082;-44
2021/03/24 05:34:40;;;;;;;1.13;1.13;;;14.50;70.90;;;;;;4199270;28;20054;-45
2021/03/24 05:37:07;;;;;;;0.55;0.55;;;14.50;70.90;;;;;;4184388;28;20053;-43
2021/03/24 05:39:31;;;;;;;0.38;0.38;;;14.50;71.00;;;;;;4184436;28;20396;-43
2021/03/24 05:42:04;;;;;;;1.25;1.25;;;14.50;71.00;;;;;;4199386;28;20048;-43
2021/03/24 05:44:39;;;;;;;0.40;0.40;;;14.50;71.00;;;;;;4200922;28;20143;-43
2021/03/24 05:47:46;;;;;;;0.43;0.43;;;14.50;71.00;;;;;;4184448;28;20415;-43
2021/03/24 05:50:41;;;;;;;0.70;0.70;;;14.50;71.00;;;;;;4183547;28;20052;-43
2021/03/24 05:53:19;;;;;;;1.45;1.35;;;14.50;71.00;;;;;;4195191;28;20052;-43
2021/03/24 05:55:48;;;;;;;1.15;0.70;;;14.40;71.10;;;;;;4200539;28;20556;-44
2021/03/24 05:58:27;;;;;;;0.40;0.40;;;14.40;72.00;;;;;;4200805;28;20052;-45
2021/03/24 06:00:53;;;;;;;2.00;1.67;;;14.40;71.20;;;;;;4200622;28;20055;-49
2021/03/24 06:03:28;;;;;;;3.10;1.98;;;14.40;71.20;;;;;;4200908;28;20057;-48
2021/03/24 06:06:13;;;;;;;0.38;0.38;;;14.40;71.20;;;;;;4200475;28;20060;-46
2021/03/24 06:09:13;;;;;;;1.00;1.00;;;14.40;71.20;;;;;;4200713;28;20430;-45
2021/03/24 06:12:00;;;;;;;0.32;0.32;;;14.40;71.20;;;;;;4200364;28;20509;-48
2021/03/24 06:14:54;;;;;;;0.90;0.90;;;14.40;71.20;;;;;;4200658;28;20499;-49
2021/03/24 06:17:41;;;;;;;0.50;0.50;;;14.40;71.30;;;;;;4188662;28;20055;-49
2021/03/24 06:20:16;;;;;;;2.90;1.65;;;14.40;71.40;;;;;;4187042;28;20068;-47
2021/03/24 06:22:50;;;;;;;1.45;0.73;;;14.40;71.40;;;;;;4200799;28;20479;-47
2021/03/24 06:25:34;;;;;;;0.65;0.65;;;14.40;71.70;;;;;;4200553;28;20075;-52
2021/03/24 06:28:17;;;;;;;0.52;0.52;;;14.40;72.10;;;;;;4200129;28;20059;-48
2021/03/24 06:30:48;;;;;;;1.23;1.23;;;14.40;73.10;;;;;;4200234;28;20105;-50
2021/03/24 06:33:41;;;;;;;0.22;0.22;;;14.50;73.70;;;;;;4200757;28;20052;-44
2021/03/24 06:36:19;;;;;;;0.20;0.20;;;14.60;72.90;;;;;;4199738;28;20056;-44
2021/03/24 06:38:50;;;;;;;2.97;2.25;;;14.50;72.10;;;;;;4200052;28;20051;-43
2021/03/24 06:41:39;;;;;;;5.57;1.33;;;14.50;71.80;;;;;;4200528;28;20134;-43
2021/03/24 06:44:32;;;;;;;1.30;1.30;;;14.50;71.70;;;;;;4198914;28;20048;-43
2021/03/24 06:46:58;;;;;;;14.82;2.35;;;14.50;71.50;;;;;;4186677;28;20131;-44
2021/03/24 06:49:41;;;;;;;1.58;1.52;;;14.50;71.30;;;;;;4196790;28;20544;-43
2021/03/24 06:52:31;;;;;;;2.30;2.13;;;14.50;71.50;;;;;;4197207;28;20090;-45
2021/03/24 06:55:24;;;;;;;2.35;1.88;;;14.50;70.90;;;;;;4197563;28;20094;-45
2021/03/24 06:58:16;;;;;;;2.40;2.30;;;14.40;70.70;;;;;;4174466;28;20048;-43
2021/03/24 07:01:13;;;;;;;1.00;1.00;;;14.40;70.60;;;;;;4190526;28;20496;-43
2021/03/24 07:04:22;;;;;;;0.50;0.50;;;14.40;70.50;;;;;;4194610;28;20147;-43
2021/03/24 07:06:55;;;;;;;1.13;1.13;;;14.40;70.40;;;;;;4196367;28;20080;-43
2021/03/24 07:09:27;;;;;;;0.43;0.43;;;14.40;70.30;;;;;;4197446;28;20139;-43
2021/03/24 07:12:09;;;;;;;0.50;0.50;;;14.40;70.10;;;;;;4197251;28;20053;-43
2021/03/24 07:15:07;;;;;;;1.30;1.25;;;14.40;69.90;;;;;;4191934;28;20052;-44
2021/03/24 07:17:55;;;;;;;2.20;2.10;;;14.40;69.70;;;;;;4197410;28;20586;-44
2021/03/24 07:20:52;;;;;;;5.18;1.85;;;14.30;69.40;;;;;;4197300;28;20102;-44
2021/03/24 07:23:36;;;;;;;3.85;2.42;;;14.40;69.40;;;;;;4197481;28;20491;-44
2021/03/24 07:26:05;;;;;;;1.10;1.10;;;14.40;69.20;;;;;;4164319;28;20063;-45
2021/03/24 07:28:47;;;;;;;1.30;1.30;;;14.40;69.10;;;;;;4197159;28;20608;-44
2021/03/24 07:31:41;;;;;;;1.50;1.23;;;14.40;69.00;;;;;;4197201;28;20048;-45
2021/03/24 07:34:13;;;;;;;4.75;2.05;;;14.40;68.90;;;;;;4183551;28;20407;-47
2021/03/24 07:36:58;;;;;;;0.80;0.80;;;14.40;68.60;;;;;;4196988;28;20087;-46
2021/03/24 07:39:52;;;;;;;1.65;1.63;;;14.50;68.50;;;;;;4197037;28;20056;-44
2021/03/24 07:42:55;;;;;;;1.08;1.08;;;14.50;68.40;;;;;;4196605;28;20106;-43
2021/03/24 07:45:36;;;;;;;0.93;0.93;;;14.50;68.50;;;;;;4185048;28;20076;-44
2021/03/24 07:48:42;;;;;;;3.35;3.15;;;14.60;68.50;;;;;;4193272;28;20059;-44
2021/03/24 07:51:11;;;;;;;1.17;1.08;;;14.60;68.30;;;;;;4179950;28;20060;-43
2021/03/24 07:53:41;;;;;;;1.13;1.10;;;14.60;68.10;;;;;;4180382;28;20053;-52
2021/03/24 07:56:11;;;;;;;2.40;1.27;;;14.60;68.00;;;;;;4180087;28;20060;-49
2021/03/24 07:59:15;;;;;;;2.00;1.83;;;14.60;67.90;;;;;;4180406;28;20525;-44
2021/03/24 08:01:45;;;;;;;1.13;1.13;;;14.60;67.80;;;;;;4190582;28;20313;-44
2021/03/24 08:04:25;;;;;;;1.58;1.27;;;14.60;67.60;;;;;;4196898;28;20520;-44
2021/03/24 08:06:59;;;;;;;1.85;1.05;;;14.60;67.50;;;;;;4196780;28;20056;-44
2021/03/24 08:09:39;;;;;;;2.70;2.60;;;14.60;67.50;;;;;;4196626;28;20059;-44
2021/03/24 08:12:14;;;;;;;1.85;1.85;;;14.60;67.30;;;;;;4196447;28;20126;-46
2021/03/24 08:14:55;;;;;;;1.15;1.15;;;14.60;67.10;;;;;;4196508;28;20106;-44
2021/03/24 08:17:36;;;;;;;5.18;2.90;;;14.70;67.80;;;;;;4196638;28;20127;-44
2021/03/24 08:20:27;;;;;;;0.15;0.15;;;14.70;66.70;;;;;;4196590;28;20495;-44
2021/03/24 08:23:30;;;;;;;1.88;1.77;;;14.70;66.60;;;;;;4179986;28;20053;-44
2021/03/24 08:26:06;;;;;;;0.95;0.95;;;14.70;66.50;;;;;;4180756;28;20049;-47
2021/03/24 08:28:38;;;;;;;1.02;1.02;;;14.70;66.40;;;;;;4196357;28;20453;-44
2021/03/24 08:31:25;;;;;;;1.90;1.85;;;14.70;66.20;;;;;;4196261;28;20072;-44
2021/03/24 08:33:57;;;;;;;6.90;2.67;;;14.70;66.00;;;;;;4196332;28;20139;-44
2021/03/24 08:36:35;;;;;;;6.22;2.20;;;14.80;66.00;;;;;;4196363;28;20058;-44
2021/03/24 08:39:18;;;;;;;1.15;1.15;;;14.80;65.90;;;;;;4196481;28;20053;-44
2021/03/24 08:42:21;;;;;;;2.65;2.53;;;14.80;65.70;;;;;;4196095;28;20130;-45
2021/03/24 08:44:50;;;;;;;6.40;3.22;;;14.80;65.50;;;;;;4195697;28;20139;-44
2021/03/24 08:47:16;;;;;;;1.48;1.42;;;14.80;65.30;;;;;;4196127;28;20056;-44
2021/03/24 08:49:44;;;;;;;3.13;3.03;;;14.80;65.20;;;;;;4195814;28;20052;-44
2021/03/24 08:52:10;;;;;;;1.77;1.77;;;14.80;65.10;;;;;;4195790;28;20102;-44
2021/03/24 08:54:59;;;;;;;1.55;1.55;;;14.80;65.00;;;;;;4195629;28;20075;-45
2021/03/24 08:57:45;;;;;;;5.57;4.97;;;14.80;64.90;;;;;;4195878;28;20072;-43
2021/03/24 09:00:18;;;;;;;2.25;2.08;;;14.80;64.60;;;;;;4195855;28;20135;-45
2021/03/24 09:02:48;;;;;;;0.88;0.88;;;14.80;64.40;;;;;;4195885;28;20087;-45
2021/03/24 09:05:26;;;;;;;1.75;1.65;;;14.80;64.20;;;;;;4195610;28;20059;-44
2021/03/24 09:08:10;;;;;;;3.13;2.92;;;14.80;64.30;;;;;;4195774;28;20055;-45
2021/03/24 09:10:45;;;;;;;1.85;1.83;;;14.80;64.40;;;;;;4195802;28;20118;-44
2021/03/24 09:13:13;;;;;;;4.97;2.90;;;14.90;64.50;;;;;;4195806;28;20408;-44
2021/03/24 09:15:49;;;;;;;1.27;1.27;;;14.80;64.40;;;;;;4195329;28;20045;-44
2021/03/24 09:18:20;;;;;;;4.57;4.18;;;14.90;64.40;;;;;;4195620;28;20058;-43
2021/03/24 09:21:11;;;;;;;6.95;3.10;;;14.90;64.40;;;;;;4191894;28;20045;-44
2021/03/24 09:24:00;;;;;;;1.85;1.23;;;14.90;64.30;;;;;;4179252;28;20423;-44
2021/03/24 09:26:43;;;;;;;0.88;0.88;;;14.90;64.10;;;;;;4178956;28;20080;-45
2021/03/24 09:29:26;;;;;;;1.38;1.38;;;14.90;64.00;;;;;;4185356;28;20052;-45
2021/03/24 09:32:23;;;;;;;5.13;1.88;;;15.00;63.90;;;;;;4193887;28;20127;-45
2021/03/24 09:34:57;;;;;;;1.27;1.27;;;15.00;63.50;;;;;;4195325;28;20415;-46
2021/03/24 09:37:23;;;;;;;1.00;1.00;;;15.00;63.50;;;;;;4195637;28;20052;-45
2021/03/24 09:39:48;;;;;;;0.10;0.10;;;15.00;63.50;;;;;;4195469;28;20074;-48
2021/03/24 09:42:19;;;;;;;2.63;1.83;;;15.00;63.40;;;;;;4195188;28;20418;-47
2021/03/24 09:44:47;;;;;;;0.47;0.47;;;15.00;63.30;;;;;;4195524;28;20422;-45
2021/03/24 09:47:35;;;;;;;2.35;2.35;;;15.00;63.10;;;;;;4195542;28;20052;-44
2021/03/24 09:50:05;;;;;;;1.55;1.55;;;15.00;63.00;;;;;;4195368;28;20139;-44
2021/03/24 09:52:33;;;;;;;0.93;0.93;;;15.10;63.10;;;;;;4162444;28;20067;-44
2021/03/24 09:55:23;;;;;;;2.67;1.85;;;15.10;63.10;;;;;;4162289;28;20057;-44
2021/03/24 09:58:19;;;;;;;3.15;1.80;;;15.10;63.10;;;;;;4127402;28;20111;-47
2021/03/24 10:00:53;;;;;;;0.88;0.88;;;15.10;63.90;;;;;;4162168;28;20048;-45
2021/03/24 10:03:28;;;;;;;0.15;0.15;;;15.10;62.90;;;;;;4162265;28;20049;-46
2021/03/24 10:05:54;;;;;;;0.80;0.80;;;15.10;62.90;;;;;;4162246;28;20112;-44
2021/03/24 10:08:30;;;;;;;1.13;1.13;;;15.20;62.90;;;;;;4161969;28;20446;-44
2021/03/24 10:10:53;;;;;;;1.08;1.08;;;15.20;62.80;;;;;;4162029;28;20115;-43
2021/03/24 10:13:23;;;;;;;1.67;1.58;;;15.20;62.70;;;;;;4162230;28;20057;-44
2021/03/24 10:16:17;;;;;;;3.25;1.25;;;15.20;62.40;;;;;;4161236;28;20064;-44
2021/03/24 10:19:02;;;;;;;1.27;1.27;;;15.30;62.30;;;;;;4162285;28;20103;-44
2021/03/24 10:21:47;;;;;;;3.50;1.63;;;15.30;62.20;;;;;;4165373;28;20060;-44
2021/03/24 10:24:35;;;;;;;0.65;0.65;;;15.30;62.20;;;;;;4165246;28;20122;-44
2021/03/24 10:27:25;;;;;;;6.78;1.35;;;15.40;62.30;;;;;;4165239;28;20134;-44
2021/03/24 10:30:28;;;;;;;1.23;1.23;;;15.40;62.00;;;;;;4165112;28;20527;-44
2021/03/24 10:32:59;;;;;;;0.68;0.68;;;15.40;62.00;;;;;;4165141;28;20053;-44
2021/03/24 10:35:32;;;;;;;0.38;0.38;;;15.40;62.00;;;;;;4164933;28;20049;-44
2021/03/24 10:37:57;;;;;;;0.95;0.95;;;15.40;62.00;;;;;;4163879;28;20053;-44
2021/03/24 10:40:24;;;;;;;1.80;1.70;;;15.40;62.00;;;;;;4164985;28;20053;-44
2021/03/24 10:42:52;;;;;;;3.05;2.80;;;15.50;62.10;;;;;;4165087;28;20080;-45
2021/03/24 10:45:21;;;;;;;1.63;1.52;;;15.50;62.10;;;;;;4164857;28;20150;-44
2021/03/24 10:47:48;;;;;;;4.68;1.65;;;15.50;61.90;;;;;;4164603;28;20107;-45
2021/03/24 10:50:18;;;;;;;1.90;1.90;;;15.50;61.90;;;;;;4164845;28;20061;-45
2021/03/24 10:52:42;;;;;;;1.10;1.10;;;15.60;62.10;;;;;;4197790;28;20105;-45
2021/03/24 10:55:06;;;;;;;2.30;2.20;;;15.60;62.10;;;;;;4197804;28;20131;-45
2021/03/24 10:57:42;;;;;;;2.45;2.35;;;15.60;61.90;;;;;;4197871;28;20068;-47
2021/03/24 11:00:13;;;;;;;0.32;0.32;;;15.60;61.90;;;;;;4197940;28;20052;-45
2021/03/24 11:02:45;;;;;;;1.38;1.33;;;15.70;62.00;;;;;;4197785;28;20052;-44
2021/03/24 11:05:11;;;;;;;1.40;0.98;;;15.70;62.00;;;;;;4194562;28;20056;-43
2021/03/24 11:07:38;;;;;;;1.58;1.58;;;15.70;61.90;;;;;;4195818;28;20056;-43
2021/03/24 11:10:19;;;;;;;3.90;1.02;;;15.70;62.00;;;;;;4197113;28;20049;-43
2021/03/24 11:12:45;;;;;;;2.45;2.28;;;15.70;61.90;;;;;;4197309;28;20392;-44
2021/03/24 11:15:16;;;;;;;1.23;1.23;;;15.70;61.60;;;;;;4197339;28;20052;-47
2021/03/24 11:17:39;;;;;;;3.15;1.55;;;15.70;61.40;;;;;;4197622;28;20048;-45
2021/03/24 11:20:07;;;;;;;0.82;0.82;;;15.70;61.40;;;;;;4197568;28;20051;-43
2021/03/24 11:22:36;;;;;;;1.98;1.77;;;15.70;61.50;;;;;;4196979;28;20441;-43
2021/03/24 11:25:01;;;;;;;1.25;1.25;;;15.70;61.50;;;;;;4196721;28;20124;-44
2021/03/24 11:27:27;;;;;;;0.82;0.82;;;15.80;61.90;;;;;;4196285;28;20102;-44
2021/03/24 11:30:12;;;;;;;0.22;0.22;;;15.80;61.70;;;;;;4196018;28;20090;-43
2021/03/24 11:32:41;;;;;;;1.17;1.17;;;15.80;61.70;;;;;;4196457;28;20041;-42
2021/03/24 11:35:11;;;;;;;3.25;2.63;;;15.90;61.80;;;;;;4194827;28;20124;-42
2021/03/24 11:37:42;;;;;;;0.85;0.85;;;15.90;61.70;;;;;;4197183;28;20048;-42
2021/03/24 11:40:18;;;;;;;0.90;0.90;;;15.90;62.30;;;;;;4179553;28;20403;-42
2021/03/24 11:42:39;;;;;;;1.63;1.52;;;15.90;61.30;;;;;;4184237;28;20135;-43
2021/03/24 11:45:08;;;;;;;3.40;2.10;;;15.90;61.00;;;;;;4195525;28;20056;-43
2021/03/24 11:47:53;;;;;;;1.95;1.85;;;15.90;61.00;;;;;;4196979;28;20524;-42
2021/03/24 11:50:19;;;;;;;0.45;0.45;;;15.90;61.00;;;;;;4196981;28;20092;-42
2021/03/24 11:52:53;;;;;;;5.88;1.27;;;15.90;61.00;;;;;;4193665;28;20118;-45
2021/03/24 11:55:41;;;;;;;2.80;2.58;;;15.90;61.00;;;;;;4196546;28;20479;-44
2021/03/24 11:58:17;;;;;;;0.63;0.63;;;15.90;61.00;;;;;;4180146;28;20076;-42
2021/03/24 12:00:56;;;;;;;0.77;0.77;;;15.90;61.00;;;;;;4182187;28;20053;-42
2021/03/24 12:03:53;;;;;;;1.83;1.83;;;15.90;61.10;;;;;;4196614;28;20861;-42
2021/03/24 12:06:31;;;;;;;4.30;2.00;;;15.90;61.20;;;;;;4180069;28;20160;-42
2021/03/24 12:08:56;;;;;;;2.75;1.85;;;15.90;61.20;;;;;;4192727;28;20056;-47
2021/03/24 12:11:22;;;;;;;1.40;1.40;;;15.90;62.00;;;;;;4194797;28;20052;-42
2021/03/24 12:13:43;;;;;;;1.38;1.38;;;15.90;61.10;;;;;;4184531;28;20040;-42
2021/03/24 12:16:09;;;;;;;2.03;1.73;;;15.90;61.10;;;;;;4196347;28;20045;-43
2021/03/24 12:18:41;;;;;;;16.42;3.08;;;15.90;61.20;;;;;;4196367;28;20574;-42
2021/03/24 12:21:03;;;;;;;1.55;1.45;;;15.90;61.10;;;;;;4196079;28;20052;-42
2021/03/24 12:23:27;;;;;;;1.67;1.65;;;16.00;61.10;;;;;;4196142;28;20055;-42
2021/03/24 12:25:52;;;;;;;0.00;0.00;;;16.00;61.10;;;;;;4196098;28;20106;-42
2021/03/24 12:28:13;;;;;;;3.13;1.27;;;16.00;61.20;;;;;;4196350;28;20048;-42
2021/03/24 12:30:37;;;;;;;0.30;0.30;;;15.90;61.20;;;;;;4195994;28;20087;-43
2021/03/24 12:33:06;;;;;;;0.73;0.73;;;15.90;61.20;;;;;;4196040;28;20049;-42
2021/03/24 12:35:28;;;;;;;0.75;0.75;;;15.90;61.30;;;;;;4195915;28;20053;-44
2021/03/24 12:37:53;;;;;;;4.00;1.38;;;15.90;61.20;;;;;;4192104;28;20055;-42
2021/03/24 12:40:18;;;;;;;0.63;0.63;;;15.90;61.30;;;;;;4196044;28;20418;-45
2021/03/24 12:42:40;;;;;;;4.93;3.00;;;15.90;61.30;;;;;;4196020;28;20053;-43
2021/03/24 12:45:02;;;;;;;3.70;2.70;;;15.90;61.30;;;;;;4193346;28;20060;-43
2021/03/24 12:47:34;;;;;;;1.55;0.80;;;16.00;61.20;;;;;;4196073;28;20056;-47
2021/03/24 12:50:24;;;;;;;0.65;0.65;;;16.00;61.10;;;;;;4195935;28;20059;-45
2021/03/24 12:52:50;;;;;;;0.88;0.80;;;16.00;61.10;;;;;;4194983;28;20553;-45
2021/03/24 12:55:13;;;;;;;9.15;2.30;;;16.00;61.10;;;;;;4195942;28;20060;-46
2021/03/24 12:57:42;;;;;;;1.33;1.33;;;16.00;61.10;;;;;;4195945;28;20426;-43
2021/03/24 13:00:24;;;;;;;0.60;0.60;;;16.00;61.20;;;;;;4195648;28;20490;-49
2021/03/24 13:03:11;;;;;;;0.35;0.35;;;16.00;61.30;;;;;;4194986;28;20051;-46
2021/03/24 13:05:40;;;;;;;1.27;1.17;;;16.00;61.30;;;;;;4195405;28;20523;-46
2021/03/24 13:08:14;;;;;;;1.10;1.10;;;16.00;61.10;;;;;;4194914;28;20542;-47